Bella Vista, AR

3:10 PM CST on March 01, 2015 (GMT -0600)
Springdale Municipal | Change Station
CLOSE
Current Station
Airport
Location: Springdale,
Elevation: 1352 ft
Nearby Weather Stations

Elev 1352 ft 36.18 °N, 94.12 °W | Updated 22 minutes ago

Overcast
Overcast
34 °F
Feels Like 28 °F
N
7
Wind Variable Wind from North

Today
High -- | Low -- °F
--% Chance of Precip.
Yesterday
High -- | Low -- °F
Precip. -- in
6:47 AM 6:11 PM
Waxing Gibbous, 87% visible
Pressure 30.34 in
Visibility 4.0 miles
Clouds Mostly Cloudy 700 ft
Overcast 1000 ft
Windchill 28 °F
Dew Point 30 °F
Humidity 87%
Rainfall 0.00 in
Snow Depth Not available.
UV 1 out of 12
Pollen .60 out of 12
Air Quality Not available.
Flu Activity Not available.
METAR KASG 012048Z 35006KT 4SM BR BKN007 OVC010 01/M01 A3034

More Conditions Fewer Conditions

Pressure 30.34 in
Visibility 4.0 miles
Clouds Mostly Cloudy 700 ft
Overcast 1000 ft
Windchill 28 °F
Dew Point 30 °F
Humidity 87%
Rainfall 0.00 in
Snow Depth Not available.
UV 1 out of 12
Pollen .60 out of 12
Air Quality Not available.
Flu Activity Not available.
METAR KASG 012048Z 35006KT 4SM BR BKN007 OVC010 01/M01 A3034

More Conditions Fewer Conditions

Nowcast | as of 2:21 PM CST on March 1, 2015

At 2:21 PM...National Weather Service Doppler radars detected patchy light drizzle across portions of far southeast Oklahoma. This activity was lifting northeast at around 30 mph...and primarily affecting Leflore count and far eastern Pushmataha County. Surface observations indicate little of this activity was reaching the ground. While some patchy light drizzle may still fall over these areas...the limited nature will have little impact. Therefore...this will be the final short term forecast issued for this event.

×

10-Day Weather Forecast

Almanac

Astronomy

Mar. 01, 2015 Rise Set
Actual Time
Civil Twilight
Nautical Twilight
Astronomical Twilight
Moon
Length of Visible Light
Length of Day
Tomorrow will be .
, % of the Moon is Illuminated

Today's Extremes

State Highs State Lows

Community

WunderPhotos

Upload Photos

1,801,559 photos uploaded!

WunderBlogs® & News

Nearby

Air Quality

  Air Quality AQ Index Pollutant
Not available.

Snow Depth

Station Depth Elevation

Earthquake Activity

City Distance Mag. Time & Date
Minimum magnitude displayed is 2.5.

Coastal Water Temperatures

Place Temperature

Nearby Weather Stations